Time;durP1;ratioP1;P1;durP2;ratioP2;P2;SDS_P1;SDS_P2;PMS_P1;PMS_P2;Temp;Humidity;BMP_temperature;BMP_pressure;BME280_temperature;BME280_humidity;BME280_pressure;Samples;Min_cycle;Max_cycle;Signal;HPM_P1;HPM_P2
2023/12/23 00:00:27;;;;;;;3.97;1.10;;;8.50;99.90;;;;;;5010561;28;20050;-77
2023/12/23 00:02:54;;;;;;;2.65;0.93;;;8.50;99.90;;;;;;5020542;28;20069;-79
2023/12/23 00:05:21;;;;;;;3.67;1.02;;;8.50;99.90;;;;;;5008855;28;20081;-78
2023/12/23 00:07:47;;;;;;;2.85;0.90;;;8.50;99.90;;;;;;5019597;28;20042;-78
2023/12/23 00:10:15;;;;;;;1.52;0.73;;;8.50;99.90;;;;;;5005082;28;20093;-79
2023/12/23 00:12:41;;;;;;;3.53;1.20;;;8.50;99.90;;;;;;5013768;28;20501;-78
2023/12/23 00:15:09;;;;;;;3.35;0.98;;;8.50;99.90;;;;;;5012448;28;20046;-79
2023/12/23 00:17:35;;;;;;;1.30;0.80;;;8.50;99.90;;;;;;5002195;28;20050;-78
2023/12/23 00:20:03;;;;;;;2.45;0.82;;;8.50;99.90;;;;;;5015514;28;20075;-78
2023/12/23 00:22:30;;;;;;;3.50;1.10;;;8.50;99.90;;;;;;5015502;28;20085;-79
2023/12/23 00:24:57;;;;;;;2.30;0.82;;;8.50;99.90;;;;;;5017709;28;20041;-79
2023/12/23 00:27:23;;;;;;;2.92;0.70;;;8.50;99.90;;;;;;5011276;28;20078;-78
2023/12/23 00:29:50;;;;;;;2.45;0.82;;;8.50;99.90;;;;;;5015603;28;20103;-78
2023/12/23 00:32:17;;;;;;;5.18;0.98;;;8.50;99.90;;;;;;5009643;28;20046;-78
2023/12/23 00:34:44;;;;;;;4.07;0.70;;;8.50;99.90;;;;;;5022162;28;20095;-79
2023/12/23 00:37:11;;;;;;;2.85;0.90;;;8.50;99.90;;;;;;5009491;28;20075;-79
2023/12/23 00:39:40;;;;;;;2.00;0.85;;;8.50;99.90;;;;;;5019838;28;20054;-79
2023/12/23 00:42:07;;;;;;;3.45;0.80;;;8.50;99.90;;;;;;5010927;28;20050;-79
2023/12/23 00:44:33;;;;;;;3.67;0.80;;;8.50;99.90;;;;;;5013648;28;20100;-80
2023/12/23 00:47:00;;;;;;;2.05;0.75;;;8.50;99.90;;;;;;5012279;28;20050;-79
2023/12/23 00:49:27;;;;;;;3.50;0.60;;;8.50;99.90;;;;;;5015328;28;20051;-79
2023/12/23 00:51:54;;;;;;;2.55;0.93;;;8.50;99.90;;;;;;4990784;28;20046;-79
2023/12/23 00:54:20;;;;;;;1.08;0.57;;;8.50;99.90;;;;;;5013197;28;20082;-79
2023/12/23 00:56:47;;;;;;;2.53;0.80;;;8.50;99.90;;;;;;5003836;28;20037;-79
2023/12/23 00:59:13;;;;;;;1.42;0.60;;;8.50;99.90;;;;;;5013904;28;20322;-79
2023/12/23 01:01:43;;;;;;;1.85;0.63;;;8.50;99.90;;;;;;5017419;28;20050;-79
2023/12/23 01:04:10;;;;;;;3.90;0.60;;;8.50;99.90;;;;;;5012316;28;20049;-79
2023/12/23 01:06:37;;;;;;;2.05;0.80;;;8.50;99.90;;;;;;5025708;28;20089;-78
2023/12/23 01:09:04;;;;;;;7.18;1.20;;;8.50;99.90;;;;;;5014555;28;20089;-78
2023/12/23 01:11:31;;;;;;;3.40;1.05;;;8.50;99.90;;;;;;5009734;28;20046;-78
2023/12/23 01:13:57;;;;;;;2.70;0.88;;;8.50;99.90;;;;;;4990500;28;20525;-78
2023/12/23 01:16:24;;;;;;;2.47;0.80;;;8.50;99.90;;;;;;5018174;28;20046;-78
2023/12/23 01:18:51;;;;;;;0.95;0.63;;;8.50;99.90;;;;;;5013033;28;20472;-78
2023/12/23 01:21:20;;;;;;;5.32;1.02;;;8.50;99.90;;;;;;5014632;28;20049;-80
2023/12/23 01:23:47;;;;;;;2.85;0.70;;;8.50;99.90;;;;;;5012597;28;20049;-79
2023/12/23 01:26:13;;;;;;;3.80;1.52;;;8.50;99.90;;;;;;5008830;28;20104;-79
2023/12/23 01:28:40;;;;;;;3.88;0.85;;;8.50;99.90;;;;;;5011901;28;20101;-80
2023/12/23 01:31:07;;;;;;;2.08;1.00;;;8.50;99.90;;;;;;5012754;28;20049;-79
2023/12/23 01:33:33;;;;;;;3.17;0.88;;;8.50;99.90;;;;;;4996632;28;20131;-78
2023/12/23 01:36:02;;;;;;;3.58;1.00;;;8.50;99.90;;;;;;5016830;28;20045;-79
2023/12/23 01:38:29;;;;;;;4.63;1.73;;;8.50;99.90;;;;;;5010568;28;20062;-80
2023/12/23 01:40:56;;;;;;;2.03;0.85;;;8.50;99.90;;;;;;5015259;28;20046;-78
2023/12/23 01:43:22;;;;;;;4.95;0.75;;;8.50;99.90;;;;;;5019732;28;20049;-79
2023/12/23 01:45:51;;;;;;;3.45;1.00;;;8.50;99.90;;;;;;5011610;28;20101;-79
2023/12/23 01:48:22;;;;;;;4.03;0.93;;;8.50;99.90;;;;;;5013543;28;20046;-78
2023/12/23 01:50:50;;;;;;;4.93;1.00;;;8.50;99.90;;;;;;5018053;28;20045;-79
2023/12/23 01:53:17;;;;;;;4.90;1.00;;;8.50;99.90;;;;;;5013639;28;20100;-79
2023/12/23 01:55:45;;;;;;;2.17;0.65;;;8.50;99.90;;;;;;5000871;28;20100;-80
2023/12/23 01:58:12;;;;;;;6.70;1.27;;;8.50;99.90;;;;;;4995020;28;20046;-79
2023/12/23 02:00:39;;;;;;;3.42;0.70;;;8.50;99.90;;;;;;5007201;28;20517;-78
2023/12/23 02:03:05;;;;;;;4.55;0.95;;;8.50;99.90;;;;;;5010117;28;20046;-78
2023/12/23 02:05:32;;;;;;;3.53;0.98;;;8.50;99.90;;;;;;5011596;28;20054;-80
2023/12/23 02:08:00;;;;;;;3.17;0.95;;;8.50;99.90;;;;;;5022298;28;20045;-79
2023/12/23 02:10:27;;;;;;;3.13;0.80;;;8.50;99.90;;;;;;5008677;28;20464;-80
2023/12/23 02:13:18;;;;;;;2.35;0.70;;;8.50;99.90;;;;;;4993697;28;20065;-79
2023/12/23 02:15:47;;;;;;;2.30;0.80;;;8.50;99.90;;;;;;5005519;28;20051;-78
2023/12/23 02:18:13;;;;;;;2.17;0.77;;;8.50;99.90;;;;;;5011681;28;20046;-78
2023/12/23 02:20:40;;;;;;;3.42;0.90;;;8.50;99.90;;;;;;5023206;28;20086;-79
2023/12/23 02:23:07;;;;;;;1.83;0.75;;;8.50;99.90;;;;;;5011830;28;20463;-79
2023/12/23 02:25:34;;;;;;;2.20;0.60;;;8.50;99.90;;;;;;5014369;28;20096;-79
2023/12/23 02:28:06;;;;;;;4.07;0.85;;;8.50;99.90;;;;;;5011489;28;20132;-79
2023/12/23 02:30:37;;;;;;;1.40;1.00;;;8.50;99.90;;;;;;5015568;28;20062;-79
2023/12/23 02:33:04;;;;;;;2.05;0.60;;;8.50;99.90;;;;;;5012098;28;20046;-79
2023/12/23 02:35:31;;;;;;;1.35;0.57;;;8.50;99.90;;;;;;4999603;28;20229;-79
2023/12/23 02:37:57;;;;;;;1.13;0.52;;;8.50;99.90;;;;;;5024299;28;20079;-79
2023/12/23 02:40:24;;;;;;;0.82;0.40;;;8.50;99.90;;;;;;5012895;28;20061;-79
2023/12/23 02:42:51;;;;;;;4.68;0.85;;;8.40;99.90;;;;;;5005464;28;20136;-79
2023/12/23 02:45:18;;;;;;;2.53;0.80;;;8.40;99.90;;;;;;5000450;28;20104;-80
2023/12/23 02:47:45;;;;;;;1.60;0.90;;;8.40;99.90;;;;;;5022424;28;20418;-79
2023/12/23 02:50:12;;;;;;;2.70;0.50;;;8.40;99.90;;;;;;5010950;28;20054;-79
2023/12/23 02:52:38;;;;;;;2.78;0.63;;;8.40;99.90;;;;;;5019235;28;20422;-78
2023/12/23 02:55:06;;;;;;;1.02;0.60;;;8.40;99.90;;;;;;5015824;28;20390;-79
2023/12/23 02:57:32;;;;;;;1.90;0.65;;;8.40;99.90;;;;;;5002762;28;20510;-78
2023/12/23 02:59:59;;;;;;;1.25;0.50;;;8.40;99.90;;;;;;5015150;28;20041;-79
2023/12/23 03:02:26;;;;;;;1.17;0.50;;;8.40;99.90;;;;;;5016963;28;20042;-79
2023/12/23 03:04:52;;;;;;;1.95;0.70;;;8.40;99.90;;;;;;5020514;28;20091;-79
2023/12/23 03:07:19;;;;;;;1.63;0.70;;;8.40;99.90;;;;;;5014439;28;20046;-80
2023/12/23 03:09:46;;;;;;;2.15;0.60;;;8.40;99.90;;;;;;4999673;28;20074;-79
2023/12/23 03:12:12;;;;;;;2.30;0.70;;;8.40;99.90;;;;;;5015986;28;20104;-79
2023/12/23 03:14:40;;;;;;;1.25;0.70;;;8.40;99.90;;;;;;5017362;28;20041;-79
2023/12/23 03:17:07;;;;;;;1.95;0.60;;;8.40;99.90;;;;;;4995248;28;20050;-79
2023/12/23 03:19:33;;;;;;;2.40;0.85;;;8.40;99.90;;;;;;5020781;28;20429;-79
2023/12/23 03:22:00;;;;;;;0.70;0.70;;;8.40;99.90;;;;;;5014965;28;20103;-79
2023/12/23 03:24:27;;;;;;;0.82;0.70;;;8.40;99.90;;;;;;5012101;28;20046;-79
2023/12/23 03:26:53;;;;;;;2.65;0.80;;;8.40;99.90;;;;;;5013293;28;20091;-78
2023/12/23 03:29:20;;;;;;;1.33;0.60;;;8.40;99.90;;;;;;5016151;28;20448;-79
2023/12/23 03:31:47;;;;;;;0.82;0.57;;;8.40;99.90;;;;;;5014864;28;20109;-79
2023/12/23 03:34:14;;;;;;;0.98;0.50;;;8.40;99.90;;;;;;5020204;28;20453;-79
2023/12/23 03:36:41;;;;;;;1.58;0.50;;;8.40;99.90;;;;;;5008992;28;20141;-80
2023/12/23 03:39:08;;;;;;;5.10;0.70;;;8.40;99.90;;;;;;5014149;28;20601;-78
2023/12/23 03:41:34;;;;;;;3.50;0.60;;;8.30;99.90;;;;;;5006955;28;20054;-79
2023/12/23 03:44:01;;;;;;;1.50;0.60;;;8.40;99.90;;;;;;5013927;28;20045;-79
2023/12/23 03:46:28;;;;;;;0.68;0.57;;;8.40;99.90;;;;;;5002622;28;20058;-79
2023/12/23 03:48:55;;;;;;;0.88;0.50;;;8.40;99.90;;;;;;5016664;28;20103;-79
2023/12/23 03:51:23;;;;;;;0.80;0.50;;;8.40;99.90;;;;;;5015941;28;20041;-79
2023/12/23 03:53:50;;;;;;;0.68;0.68;;;8.40;99.90;;;;;;5012725;28;20066;-79
2023/12/23 03:56:16;;;;;;;1.40;0.80;;;8.40;99.90;;;;;;5020505;28;20080;-79
2023/12/23 03:58:43;;;;;;;2.75;1.00;;;8.40;99.90;;;;;;5011639;28;20058;-79
2023/12/23 04:01:11;;;;;;;1.85;0.60;;;8.40;99.90;;;;;;5017056;28;20063;-79
2023/12/23 04:03:38;;;;;;;1.90;0.60;;;8.40;99.90;;;;;;5010598;28;20050;-79
2023/12/23 04:06:04;;;;;;;1.15;0.60;;;8.50;99.90;;;;;;5016569;28;20524;-79
2023/12/23 04:08:31;;;;;;;0.65;0.40;;;8.40;99.90;;;;;;4996723;28;20450;-77
2023/12/23 04:10:59;;;;;;;2.30;0.63;;;8.40;99.90;;;;;;5021231;28;20080;-79
2023/12/23 04:13:25;;;;;;;0.43;0.40;;;8.40;99.90;;;;;;5015615;28;20046;-79
2023/12/23 04:15:52;;;;;;;2.50;0.50;;;8.40;99.90;;;;;;5013732;28;20046;-78
2023/12/23 04:18:19;;;;;;;1.27;0.60;;;8.40;99.90;;;;;;5013538;28;20095;-79
2023/12/23 04:20:46;;;;;;;2.10;0.52;;;8.40;99.90;;;;;;5018177;28;20557;-78
2023/12/23 04:23:12;;;;;;;0.98;0.77;;;8.40;99.90;;;;;;5012114;28;20111;-78
2023/12/23 04:25:39;;;;;;;1.80;0.90;;;8.40;99.90;;;;;;5014003;28;20107;-79
2023/12/23 04:28:06;;;;;;;1.38;0.50;;;8.40;99.90;;;;;;4990456;28;20080;-77
2023/12/23 04:30:34;;;;;;;1.15;0.40;;;8.40;99.90;;;;;;5011531;28;20054;-78
2023/12/23 04:33:01;;;;;;;0.40;0.40;;;8.50;99.90;;;;;;5019952;28;20079;-77
2023/12/23 04:35:28;;;;;;;1.63;0.43;;;8.40;99.90;;;;;;4998550;28;20050;-79
2023/12/23 04:37:55;;;;;;;0.77;0.60;;;8.40;99.90;;;;;;5014194;28;20518;-78
2023/12/23 04:40:21;;;;;;;0.50;0.50;;;8.40;99.90;;;;;;5009715;28;20414;-78
2023/12/23 04:42:48;;;;;;;2.70;0.50;;;8.40;99.90;;;;;;5019600;28;20046;-79
2023/12/23 04:45:15;;;;;;;1.02;0.50;;;8.40;99.90;;;;;;5008308;28;20048;-79
2023/12/23 04:47:42;;;;;;;1.48;0.75;;;8.40;99.90;;;;;;5017968;28;20070;-78
2023/12/23 04:50:09;;;;;;;2.20;0.50;;;8.40;99.90;;;;;;5014686;28;20061;-78
2023/12/23 04:52:35;;;;;;;0.95;0.57;;;8.40;99.90;;;;;;5021592;28;20046;-78
2023/12/23 04:55:05;;;;;;;1.38;0.38;;;8.50;99.90;;;;;;5015988;28;20076;-79
2023/12/23 04:57:34;;;;;;;0.93;0.43;;;8.50;99.90;;;;;;5010602;28;20050;-78
2023/12/23 05:00:00;;;;;;;0.75;0.50;;;8.40;99.90;;;;;;5011435;28;20120;-79
2023/12/23 05:02:27;;;;;;;0.77;0.50;;;8.40;99.90;;;;;;5012960;28;20045;-78
2023/12/23 05:04:54;;;;;;;4.90;0.70;;;8.50;99.90;;;;;;5015268;28;20056;-77
2023/12/23 05:07:21;;;;;;;1.27;0.52;;;8.50;99.90;;;;;;5012426;28;20061;-78
2023/12/23 05:09:47;;;;;;;2.50;0.50;;;8.50;99.90;;;;;;5012096;28;20049;-78
2023/12/23 05:12:14;;;;;;;3.33;0.60;;;8.50;99.90;;;;;;5012070;28;20092;-77
2023/12/23 05:14:41;;;;;;;1.23;0.43;;;8.50;99.90;;;;;;4998720;28;20112;-77
2023/12/23 05:17:07;;;;;;;2.40;0.50;;;8.50;99.90;;;;;;5011647;28;20050;-78
2023/12/23 05:19:34;;;;;;;3.65;0.60;;;8.50;99.90;;;;;;5000125;28;20086;-78
2023/12/23 05:22:01;;;;;;;1.90;0.68;;;8.50;99.90;;;;;;5010603;28;20454;-78
2023/12/23 05:24:28;;;;;;;1.15;0.60;;;8.50;99.90;;;;;;5012966;28;20100;-78
2023/12/23 05:26:54;;;;;;;2.30;0.60;;;8.50;99.90;;;;;;5010947;28;20526;-78
2023/12/23 05:29:23;;;;;;;2.22;0.40;;;8.50;99.90;;;;;;4995804;28;20533;-78
2023/12/23 05:31:50;;;;;;;1.50;0.50;;;8.50;99.90;;;;;;5009682;28;20073;-77
2023/12/23 05:34:17;;;;;;;1.85;0.52;;;8.50;99.90;;;;;;5016107;28;20104;-77
2023/12/23 05:36:44;;;;;;;1.08;0.40;;;8.50;99.90;;;;;;5004540;28;20100;-79
2023/12/23 05:39:11;;;;;;;2.45;0.77;;;8.50;99.90;;;;;;5014765;28;20050;-78
2023/12/23 05:41:38;;;;;;;1.98;0.52;;;8.50;99.90;;;;;;5009670;28;20441;-78
2023/12/23 05:44:04;;;;;;;2.13;0.50;;;8.50;99.90;;;;;;5014418;28;20128;-78
2023/12/23 05:46:33;;;;;;;1.63;0.60;;;8.50;99.90;;;;;;5009725;28;20064;-79
2023/12/23 05:49:00;;;;;;;0.57;0.40;;;8.50;99.90;;;;;;5013586;28;20324;-79
2023/12/23 05:51:27;;;;;;;1.50;0.47;;;8.50;99.90;;;;;;5009165;28;20050;-79
2023/12/23 05:53:53;;;;;;;1.17;0.60;;;8.50;99.90;;;;;;5010804;28;20085;-79
2023/12/23 05:56:20;;;;;;;1.88;0.43;;;8.50;99.90;;;;;;5014728;28;20485;-78
2023/12/23 05:58:47;;;;;;;1.60;0.50;;;8.50;99.90;;;;;;5007851;28;20050;-79
2023/12/23 06:01:13;;;;;;;1.02;0.52;;;8.50;99.90;;;;;;5001176;28;20053;-78
2023/12/23 06:03:40;;;;;;;1.75;0.68;;;8.50;99.90;;;;;;5006254;28;20054;-78
2023/12/23 06:06:07;;;;;;;1.58;0.73;;;8.50;99.90;;;;;;5018133;28;20087;-79
2023/12/23 06:08:34;;;;;;;1.70;0.50;;;8.50;99.90;;;;;;4993290;28;20054;-78
2023/12/23 06:11:02;;;;;;;1.10;0.60;;;8.50;99.90;;;;;;5002184;28;20328;-77
2023/12/23 06:13:31;;;;;;;1.30;0.50;;;8.50;99.90;;;;;;5000453;28;20046;-79
2023/12/23 06:16:03;;;;;;;1.20;0.47;;;8.50;99.90;;;;;;5014785;28;20046;-78
2023/12/23 06:18:30;;;;;;;1.00;0.52;;;8.50;99.90;;;;;;5010149;28;20077;-78
2023/12/23 06:20:57;;;;;;;2.00;0.65;;;8.50;99.90;;;;;;5020503;28;20073;-78
2023/12/23 06:23:24;;;;;;;1.10;0.40;;;8.50;99.90;;;;;;5008906;28;20057;-79
2023/12/23 06:25:51;;;;;;;4.68;0.73;;;8.50;99.90;;;;;;5010516;28;20056;-78
2023/12/23 06:28:17;;;;;;;2.28;0.52;;;8.50;99.90;;;;;;5014783;28;20050;-78
2023/12/23 06:30:44;;;;;;;1.63;0.57;;;8.50;99.90;;;;;;5009337;28;20138;-79
2023/12/23 06:33:11;;;;;;;0.90;0.73;;;8.50;99.90;;;;;;5014500;28;20417;-78
2023/12/23 06:35:37;;;;;;;1.52;0.65;;;8.50;99.90;;;;;;5008003;28;20058;-78
2023/12/23 06:38:04;;;;;;;2.67;0.52;;;8.50;99.90;;;;;;5013055;28;20532;-79
2023/12/23 06:40:31;;;;;;;1.48;0.75;;;8.50;99.90;;;;;;4994155;28;20061;-79
2023/12/23 06:42:58;;;;;;;2.10;0.80;;;8.60;99.90;;;;;;5017811;28;20112;-77
2023/12/23 06:45:25;;;;;;;2.17;0.50;;;8.60;99.90;;;;;;5007328;28;20108;-79
2023/12/23 06:47:51;;;;;;;0.75;0.60;;;8.50;99.90;;;;;;5016045;28;20086;-79
2023/12/23 06:50:18;;;;;;;1.30;0.70;;;8.50;99.90;;;;;;5007052;28;20057;-80
2023/12/23 06:52:45;;;;;;;0.90;0.80;;;8.50;99.90;;;;;;5016177;28;20045;-79
2023/12/23 06:55:13;;;;;;;1.33;0.60;;;8.60;99.90;;;;;;5010175;28;20132;-79
2023/12/23 06:57:40;;;;;;;0.98;0.70;;;8.50;99.90;;;;;;4995099;28;20052;-80
2023/12/23 07:00:07;;;;;;;2.25;0.68;;;8.50;99.90;;;;;;5003768;28;20084;-80
2023/12/23 07:02:34;;;;;;;1.55;0.93;;;8.50;99.90;;;;;;5011114;28;20049;-78
2023/12/23 07:05:01;;;;;;;0.52;0.52;;;8.50;99.90;;;;;;5014841;28;20087;-79
2023/12/23 07:07:28;;;;;;;1.40;0.70;;;8.50;99.90;;;;;;5010111;28;20053;-78
2023/12/23 07:09:55;;;;;;;0.80;0.40;;;8.40;99.90;;;;;;5010902;28;20105;-79
2023/12/23 07:12:33;;;;;;;0.80;0.68;;;8.40;99.90;;;;;;5008061;28;20045;-79
2023/12/23 07:15:00;;;;;;;2.88;0.88;;;8.40;99.90;;;;;;5017127;28;20047;-79
2023/12/23 07:17:26;;;;;;;0.55;0.40;;;8.40;99.90;;;;;;5007592;28;20070;-79
2023/12/23 07:20:11;;;;;;;1.75;0.80;;;8.40;99.90;;;;;;5021078;28;20079;-78
2023/12/23 07:22:38;;;;;;;0.55;0.43;;;8.40;99.90;;;;;;5013125;28;20077;-79
2023/12/23 07:25:05;;;;;;;0.40;0.40;;;8.40;99.90;;;;;;5019499;28;20087;-78
2023/12/23 07:27:32;;;;;;;1.00;0.43;;;8.50;99.90;;;;;;5013501;28;20103;-78
2023/12/23 07:29:58;;;;;;;2.47;0.60;;;8.40;99.90;;;;;;5015485;28;20478;-78
2023/12/23 07:32:25;;;;;;;4.60;1.30;;;8.50;99.90;;;;;;5012880;28;20080;-79
2023/12/23 07:34:52;;;;;;;2.10;0.60;;;8.40;99.90;;;;;;5001745;28;20132;-78
2023/12/23 07:37:19;;;;;;;2.90;1.15;;;8.50;99.90;;;;;;5018418;28;20049;-79
2023/12/23 07:39:46;;;;;;;0.95;0.80;;;8.50;99.90;;;;;;5012324;28;20046;-78
2023/12/23 07:42:12;;;;;;;2.30;1.17;;;8.50;99.90;;;;;;5013610;28;20049;-80
2023/12/23 07:44:39;;;;;;;1.52;0.90;;;8.50;99.90;;;;;;5013505;28;20521;-79
2023/12/23 07:47:09;;;;;;;2.88;1.50;;;8.50;99.90;;;;;;5003770;28;20080;-79
2023/12/23 07:49:36;;;;;;;1.38;0.65;;;8.60;99.90;;;;;;5009522;28;20068;-78
2023/12/23 07:52:06;;;;;;;1.60;0.60;;;8.50;99.90;;;;;;5020948;28;20095;-78
2023/12/23 07:54:33;;;;;;;0.45;0.45;;;8.50;99.90;;;;;;4997106;28;20104;-79
2023/12/23 07:57:00;;;;;;;1.95;0.50;;;8.50;99.90;;;;;;5018952;28;20089;-78
2023/12/23 07:59:27;;;;;;;0.52;0.52;;;8.50;99.90;;;;;;5007559;28;20058;-79
2023/12/23 08:01:53;;;;;;;1.48;0.60;;;8.50;99.90;;;;;;5016665;28;20085;-78
2023/12/23 08:04:20;;;;;;;1.85;0.68;;;8.50;99.90;;;;;;5012905;28;20058;-78
2023/12/23 08:06:47;;;;;;;1.92;0.60;;;8.50;99.90;;;;;;5015202;28;20278;-79
2023/12/23 08:09:13;;;;;;;0.90;0.40;;;8.50;99.90;;;;;;5011860;28;20484;-78
2023/12/23 08:11:40;;;;;;;0.55;0.50;;;8.60;99.90;;;;;;5013426;28;20084;-77
2023/12/23 08:14:07;;;;;;;1.40;0.50;;;8.60;99.90;;;;;;5017407;28;20103;-78
2023/12/23 08:16:33;;;;;;;2.75;0.60;;;8.60;99.90;;;;;;5012960;28;20129;-79
2023/12/23 08:19:00;;;;;;;3.13;0.70;;;8.60;99.90;;;;;;5002753;28;20073;-78
2023/12/23 08:21:27;;;;;;;0.60;0.50;;;8.60;99.90;;;;;;5012231;28;20077;-78
2023/12/23 08:23:54;;;;;;;0.50;0.50;;;8.60;99.90;;;;;;5013110;28;20108;-79
2023/12/23 08:26:20;;;;;;;1.17;0.43;;;8.60;99.90;;;;;;5012388;28;20046;-79
2023/12/23 08:28:47;;;;;;;0.65;0.55;;;8.60;99.90;;;;;;5015955;28;20049;-79
2023/12/23 08:31:14;;;;;;;1.08;0.85;;;8.60;99.90;;;;;;5010888;28;20046;-79
2023/12/23 08:33:41;;;;;;;1.05;0.50;;;8.70;99.90;;;;;;5015274;28;20115;-79
2023/12/23 08:36:08;;;;;;;0.60;0.43;;;8.60;99.90;;;;;;5013917;28;20044;-79
2023/12/23 08:38:34;;;;;;;1.85;0.52;;;8.60;99.90;;;;;;5016732;28;20064;-79
2023/12/23 08:41:01;;;;;;;2.13;0.70;;;8.60;99.90;;;;;;5001256;28;20109;-77
2023/12/23 08:43:28;;;;;;;1.08;0.52;;;8.60;99.90;;;;;;5023288;28;20077;-77
2023/12/23 08:45:55;;;;;;;1.25;0.50;;;8.60;99.90;;;;;;5017049;28;20050;-79
2023/12/23 08:48:21;;;;;;;1.15;0.93;;;8.60;99.90;;;;;;5021845;28;20050;-79
2023/12/23 08:50:48;;;;;;;1.67;0.40;;;8.70;99.90;;;;;;5014037;28;20046;-78
2023/12/23 08:53:16;;;;;;;1.80;0.40;;;8.70;99.90;;;;;;4998194;28;20097;-78
2023/12/23 08:55:44;;;;;;;1.02;0.52;;;8.70;99.90;;;;;;5009828;28;20050;-77
2023/12/23 08:58:15;;;;;;;1.92;0.60;;;8.70;99.90;;;;;;5008815;28;20122;-78
2023/12/23 09:00:41;;;;;;;1.65;0.60;;;8.70;99.90;;;;;;5002105;28;20112;-77
2023/12/23 09:03:08;;;;;;;1.08;0.57;;;8.70;99.90;;;;;;5012470;28;20128;-79
2023/12/23 09:05:35;;;;;;;1.17;0.77;;;8.70;99.90;;;;;;5015694;28;20376;-77
2023/12/23 09:08:02;;;;;;;1.48;0.38;;;8.70;99.90;;;;;;4993009;28;20050;-78
2023/12/23 09:10:29;;;;;;;1.83;1.38;;;8.80;99.90;;;;;;5017860;28;20045;-78
2023/12/23 09:12:55;;;;;;;0.50;0.43;;;8.80;99.90;;;;;;5009662;28;20129;-79
2023/12/23 09:15:22;;;;;;;0.68;0.40;;;8.80;99.90;;;;;;5019011;28;20506;-78
2023/12/23 09:17:49;;;;;;;1.20;0.75;;;8.80;99.90;;;;;;4996367;28;20078;-79
2023/12/23 09:20:17;;;;;;;1.00;0.82;;;8.90;99.90;;;;;;5017486;28;20417;-79
2023/12/23 09:22:43;;;;;;;1.50;0.70;;;8.90;99.90;;;;;;5012801;28;20054;-77
2023/12/23 09:25:12;;;;;;;0.65;0.63;;;8.90;99.90;;;;;;5012396;28;20049;-77
2023/12/23 09:27:39;;;;;;;0.40;0.40;;;8.90;99.90;;;;;;5013195;28;20054;-78
2023/12/23 09:30:06;;;;;;;0.30;0.30;;;8.80;99.90;;;;;;5014707;28;20046;-78
2023/12/23 09:32:33;;;;;;;0.40;0.40;;;8.90;99.90;;;;;;5011268;28;20046;-78
2023/12/23 09:35:00;;;;;;;1.02;0.52;;;8.90;99.90;;;;;;5012388;28;20116;-78
2023/12/23 09:37:32;;;;;;;1.00;0.70;;;9.00;99.90;;;;;;5016823;28;20256;-78
2023/12/23 09:40:01;;;;;;;0.30;0.30;;;8.90;99.90;;;;;;5009768;28;20061;-78
2023/12/23 09:42:28;;;;;;;1.20;0.50;;;8.90;99.90;;;;;;5014903;28;20060;-77
2023/12/23 09:44:55;;;;;;;0.73;0.60;;;8.90;99.90;;;;;;5011500;28;20055;-79
2023/12/23 09:47:21;;;;;;;0.40;0.40;;;8.90;99.90;;;;;;5019216;28;20130;-78
2023/12/23 09:49:48;;;;;;;0.63;0.52;;;8.90;99.90;;;;;;5006911;28;20414;-79
2023/12/23 09:52:15;;;;;;;1.10;0.70;;;8.80;99.90;;;;;;5019630;28;20124;-78
2023/12/23 09:54:47;;;;;;;1.02;0.60;;;8.80;99.90;;;;;;4995235;28;20105;-78
2023/12/23 09:57:15;;;;;;;1.83;0.70;;;8.80;99.90;;;;;;5013815;28;20037;-78
2023/12/23 09:59:42;;;;;;;1.05;0.70;;;8.80;99.90;;;;;;5011731;28;20081;-79
2023/12/23 10:02:09;;;;;;;0.70;0.50;;;8.90;99.90;;;;;;5015292;28;20559;-79
2023/12/23 10:04:36;;;;;;;1.17;0.55;;;8.90;99.90;;;;;;5000768;28;20053;-78
2023/12/23 10:07:03;;;;;;;0.88;0.60;;;8.90;99.90;;;;;;5000409;28;20484;-79
2023/12/23 10:09:30;;;;;;;0.40;0.40;;;8.90;99.90;;;;;;5010545;28;20053;-78
2023/12/23 10:11:57;;;;;;;1.75;0.75;;;8.90;99.90;;;;;;5002864;28;20042;-78
2023/12/23 10:14:25;;;;;;;1.48;0.30;;;8.90;99.90;;;;;;5021102;28;20103;-78
2023/12/23 10:16:53;;;;;;;0.52;0.40;;;8.90;99.90;;;;;;5010245;28;20050;-78
2023/12/23 10:19:20;;;;;;;1.13;0.55;;;8.90;99.90;;;;;;5013640;28;20557;-78
2023/12/23 10:21:51;;;;;;;4.80;0.98;;;8.90;99.90;;;;;;5008289;28;20054;-79
2023/12/23 10:24:17;;;;;;;1.50;0.60;;;8.90;99.90;;;;;;4993496;28;20053;-78
2023/12/23 10:26:45;;;;;;;0.95;0.50;;;8.90;99.90;;;;;;5006957;28;20046;-79
2023/12/23 10:29:16;;;;;;;0.73;0.38;;;8.90;99.90;;;;;;5020243;28;20099;-79
2023/12/23 10:31:47;;;;;;;3.47;1.40;;;9.00;99.90;;;;;;5005322;28;20054;-78
2023/12/23 10:34:17;;;;;;;0.47;0.40;;;8.90;99.90;;;;;;4999838;28;20100;-79
2023/12/23 10:36:44;;;;;;;0.32;0.32;;;9.00;99.90;;;;;;5011727;28;20050;-78
2023/12/23 10:39:22;;;;;;;2.15;0.63;;;9.00;99.90;;;;;;5014066;28;20081;-79
2023/12/23 10:42:03;;;;;;;0.68;0.52;;;9.00;99.90;;;;;;5008700;28;20065;-79
2023/12/23 10:44:32;;;;;;;1.10;0.70;;;9.00;99.90;;;;;;5010507;28;20096;-80
2023/12/23 10:46:59;;;;;;;0.73;0.50;;;9.00;99.90;;;;;;5000322;28;20058;-79
2023/12/23 10:49:28;;;;;;;0.98;0.55;;;9.00;99.90;;;;;;5010386;28;20517;-79
2023/12/23 10:51:57;;;;;;;0.45;0.45;;;9.00;99.90;;;;;;5016122;28;20077;-78
2023/12/23 10:54:25;;;;;;;2.40;0.50;;;9.00;99.90;;;;;;4992278;28;20073;-78
2023/12/23 10:56:53;;;;;;;0.35;0.35;;;9.00;99.90;;;;;;5019229;28;20045;-78
2023/12/23 10:59:19;;;;;;;1.23;0.63;;;9.00;99.90;;;;;;5017168;28;20045;-78
2023/12/23 11:01:47;;;;;;;0.80;0.40;;;8.90;99.90;;;;;;5006243;28;20461;-78
2023/12/23 11:04:14;;;;;;;1.65;0.60;;;9.00;99.90;;;;;;5017559;28;20136;-80
2023/12/23 11:06:43;;;;;;;1.00;0.50;;;9.00;99.90;;;;;;5014843;28;20054;-80
2023/12/23 11:09:12;;;;;;;0.77;0.60;;;9.00;99.90;;;;;;5020272;28;20054;-79
2023/12/23 11:11:41;;;;;;;0.70;0.60;;;9.00;99.90;;;;;;5014532;28;20049;-80
2023/12/23 11:14:08;;;;;;;2.28;0.75;;;9.00;99.90;;;;;;5024337;28;20042;-79
2023/12/23 11:16:39;;;;;;;0.65;0.65;;;9.10;99.90;;;;;;5015624;28;20081;-80
2023/12/23 11:19:06;;;;;;;0.80;0.47;;;9.10;99.90;;;;;;5017608;28;20070;-79
2023/12/23 11:21:34;;;;;;;0.40;0.40;;;9.10;99.90;;;;;;5014752;28;20080;-80
2023/12/23 11:24:02;;;;;;;1.20;0.50;;;9.10;99.90;;;;;;5004402;28;20138;-79
2023/12/23 11:26:35;;;;;;;0.65;0.45;;;9.10;99.90;;;;;;5015956;28;20054;-79
2023/12/23 11:29:05;;;;;;;0.75;0.50;;;9.10;99.90;;;;;;5021838;28;20089;-79
2023/12/23 11:31:32;;;;;;;0.85;0.52;;;9.20;99.90;;;;;;5017370;28;20373;-79
2023/12/23 11:34:00;;;;;;;0.60;0.60;;;9.20;99.90;;;;;;5020292;28;20097;-79
2023/12/23 11:36:27;;;;;;;1.40;0.50;;;9.20;99.90;;;;;;4999224;28;20152;-79
2023/12/23 11:38:53;;;;;;;1.00;0.70;;;9.30;99.90;;;;;;5017737;28;20589;-79
2023/12/23 11:41:21;;;;;;;2.13;1.08;;;9.20;99.90;;;;;;4998311;28;20088;-80
2023/12/23 11:43:52;;;;;;;0.50;0.50;;;9.20;99.90;;;;;;5017533;28;20050;-79
2023/12/23 11:46:22;;;;;;;1.40;0.75;;;9.20;99.90;;;;;;5019501;28;20125;-80
2023/12/23 11:48:48;;;;;;;0.70;0.70;;;9.20;99.90;;;;;;5012657;28;20070;-79
2023/12/23 11:51:16;;;;;;;1.17;0.50;;;9.20;99.90;;;;;;5004452;28;20052;-78
2023/12/23 11:53:43;;;;;;;0.50;0.38;;;9.20;99.90;;;;;;5012130;28;20081;-79
2023/12/23 11:56:10;;;;;;;0.50;0.50;;;9.20;99.90;;;;;;5021362;28;20076;-79
2023/12/23 11:58:37;;;;;;;0.32;0.30;;;9.20;99.90;;;;;;5010771;28;20050;-78
2023/12/23 12:01:04;;;;;;;0.40;0.40;;;9.20;99.90;;;;;;5019075;28;20062;-79
2023/12/23 12:03:31;;;;;;;0.65;0.43;;;9.20;99.90;;;;;;5010140;28;20046;-77
2023/12/23 12:05:59;;;;;;;0.40;0.40;;;9.20;99.90;;;;;;4999164;28;20054;-78
2023/12/23 12:08:26;;;;;;;0.52;0.30;;;9.10;99.90;;;;;;5014324;28;20344;-79
2023/12/23 12:10:56;;;;;;;0.30;0.30;;;9.20;99.90;;;;;;5015903;28;20088;-79
2023/12/23 12:13:29;;;;;;;0.90;0.50;;;9.20;99.90;;;;;;4999981;28;20448;-79
2023/12/23 12:15:56;;;;;;;0.50;0.40;;;9.20;99.90;;;;;;5014083;28;20489;-78
2023/12/23 12:18:22;;;;;;;0.52;0.50;;;9.20;99.90;;;;;;5019581;28;20591;-79
2023/12/23 12:20:49;;;;;;;0.40;0.40;;;9.20;99.90;;;;;;5012465;28;20050;-78
2023/12/23 12:23:16;;;;;;;0.50;0.50;;;9.20;99.90;;;;;;5016659;28;20057;-79
2023/12/23 12:25:50;;;;;;;0.30;0.30;;;9.20;99.90;;;;;;4994985;28;20053;-80
2023/12/23 12:28:18;;;;;;;0.45;0.45;;;9.10;99.90;;;;;;4997975;28;20057;-78
2023/12/23 12:30:44;;;;;;;0.50;0.40;;;9.10;99.90;;;;;;5009174;28;20049;-79
2023/12/23 12:33:11;;;;;;;1.52;0.45;;;9.10;99.90;;;;;;5020589;28;20513;-79
2023/12/23 12:35:40;;;;;;;0.50;0.50;;;9.10;99.90;;;;;;5015145;28;20078;-77
2023/12/23 12:38:08;;;;;;;0.47;0.32;;;9.00;99.90;;;;;;5009318;28;20069;-77
2023/12/23 12:40:48;;;;;;;0.65;0.40;;;9.00;99.90;;;;;;5017026;28;20077;-79
2023/12/23 12:43:15;;;;;;;0.30;0.30;;;8.90;99.90;;;;;;5002418;28;20586;-78
2023/12/23 12:45:42;;;;;;;0.32;0.32;;;8.90;99.90;;;;;;5001250;28;20054;-77
2023/12/23 12:48:10;;;;;;;0.28;0.28;;;8.90;99.90;;;;;;5014655;28;20498;-77
2023/12/23 12:50:39;;;;;;;0.50;0.50;;;8.90;99.90;;;;;;5010160;28;20132;-78
2023/12/23 12:53:06;;;;;;;0.57;0.47;;;8.90;99.90;;;;;;5012669;28;20053;-79
2023/12/23 12:55:33;;;;;;;1.38;0.50;;;8.90;99.90;;;;;;5004359;28;20051;-78
2023/12/23 12:58:01;;;;;;;1.02;0.60;;;8.90;99.90;;;;;;5010760;28;20053;-79